Relevés horaires Bouveret (Suisse)


Relevés horaires à Bouveret - Mercredi 21 Févr. 2018
Heure UTC1 Température [°C] Vent [km/h] Hum. [%] Pres.4 [hPa] Visi. [Km] Nébu. [octa] Préc.5 [mm] Cond.
2m. Res. Ros. Dir.2 Vit. Moy. Raf.3
23:00 2.3 -2.1 -4.0 N 18.5 -- 29.6 63 1012.3(-1.1/3h) -- -- -- --
22:00 2.3 -2.4 -4.4 N 20.4 -- 37.0 61 1012.8(-0.9/3h) -- -- -- --
21:00 2.5 -2.8 -3.2 N 25.9 -- 42.6 66 1013.3(-0.7/3h) -- -- -- --
20:00 2.7 0.1 -4.6 NNO 9.3 -- 42.6 59 1013.4(-0.2/3h) -- -- -- --
19:00 2.7 -0.7 -4.4 N 13.0 -- 33.3 59 1013.6(0.0/3h) -- -- -- --
18:00 2.9 -1.6 -3.8 NNO 20.4 -- 50.0 61 1013.9(0.4/3h) -- -- -- --
17:00 3.0 -0.7 -4.3 NNO 14.8 -- 27.8 59 1013.6(0.0/3h) -- -- -- --
16:00 3.1 -0.9 -4.5 NNO 16.7 -- 27.8 57 1013.6(-0.2/3h) -- -- -- --
15:00 3.1 -0.9 -4.3 O 16.7 -- 50.0 58 1013.5(-0.1/3h) -- -- -- --
14:00 3.3 -0.9 -4.6 NNO 18.5 -- 50.0 56 1013.5(0.1/3h) -- -- -- --
13:00 3.5 -0.9 -4.1 NNO 20.4 -- 44.4 57 1013.7(0.3/3h) -- -- -- --
12:00 3.5 -1.7 -4.7 NNO 27.8 -- 46.3 55 1013.5(0.2/3h) -- -- -- --
11:00 3.1 -0.9 -5.3 NO 16.7 -- 27.8 54 1013.5(-0.1/3h) -- -- -- --
10:00 2.5 0.4 -5.8 ONO 7.4 -- 14.8 54 1013.6(-0.3/3h) -- -- -- --
09:00 2.2 -0.5 -5.7 ONO 9.3 -- 46.3 56 1013.5(-0.2/3h) -- -- -- --
08:00 2.1 -1.1 -4.8 N 11.1 -- 44.4 60 1013.7(0.0/3h) -- -- -- --
07:00 1.7 -4 -4.0 N 27.8 -- 46.3 66 1014(0.2/3h) -- -- -- --
06:00 1.6 -4.3 -3.0 N 29.6 -- 44.4 71 1013.8(-0.3/3h) -- -- -- --
05:00 1.7 -4.4 -3.6 N 31.5 -- 42.6 68 1013.8(-0.4/3h) -- -- -- --
04:00 1.8 -3.7 -3.8 N 25.9 -- 42.6 66 1013.8(-0.5/3h) -- -- -- --
03:00 2.0 -3.4 -3.3 N 25.9 -- 44.4 68 1014.1(-0.1/3h) -- -- -- --
02:00 2.2 -2.5 -3.6 NNO 20.4 -- 37.0 65 1014.1(0.0/3h) -- -- -- --
01:00 2.2 -2 -3.4 NNO 16.7 -- 44.4 66 1014.2(0.1/3h) -- -- -- --
00:00 2.4 -2 -3.0 NNO 18.5 -- 50.0 67 1014.1(0.0/3h) -- -- -- --

1 Coordinated Universal Time. Actuellement il est 18:00 locale et 16:00 UTC.

2 Le vent souffle depuis la direction indiquée vers la direction oposée.

3 Les rafales max. sont disponible 40 min après l'heure du relevé.

4 Pour les stations d'altitude (plus de 600m) le géopotentiel du niveau le plus proche de la pression obligatoire est indiqué.

5 Les stations disposant d'un diffuseur peuvent indiquer "trace". Cela signifie que des précipitations ont touchés le sol mais que la quantité est inférieure à 0.1 mm.

Copyright

Les données affichées sur cette page sont la propriété exclusive de Météo Suisse.

Récapitulatif de la journée
Température [°C] Vent [km/h] Ensoleillement4 [h] Precipitations totale5 [mm] Pression [Hpa]
Min1 Max.2 Moy.3 Max. Min Max.
1.6 3.5 0 50.0 0 h 0 min 0 1012.3 1014.2

1 Température minimale relevée entre 18:00 UTC la veille et 18:00 UTC le jour donné.

2 Température maximale relevée entre 06:00 UTC le jour donné et 06:00 UTC le lendemain.

3 Vent moyen de la journée basé sur les relevés horaires.

4 Ensoleillement en heures relevé entre 06:00 UTC la veille et 06:00 UTC le jour donné.

5 Précipitations totales tombées entre 06:00 UTC la jour donné et 06:00 UTC le lendemain.

Graphiques horaires